Glens Falls, NY

11:30 PM EDT on September 01, 2014 (GMT -0400)
Glens Falls, NY | Change Station
CLOSE
Current Station
Personal Weather Station
Location: Glens Falls, NY
Elevation: 331 ft
Nearby Weather Stations

Elev 331 ft 43.31 °N, 73.64 °W | Updated 11 minutes ago

Mostly Cloudy
Mostly Cloudy
73.2 °F
Feels Like 71 °F
N
1.1
Wind Variable Wind from South

Today
High -- | Low -- °F
--% Chance of Precip.
Yesterday
High -- | Low -- °F
Precip. -- in
6:18 AM 7:29 PM
Waxing Crescent, 47% visible
Pressure 29.92 in
Visibility 6.0 miles
Clouds Scattered Clouds 4400 ft
Mostly Cloudy 5500 ft
Mostly Cloudy 7000 ft
Heat Index 71 °F
Dew Point 70 °F
Humidity 89%
Rainfall 0.00 in
Snow Depth Not available.
UV 0 out of 12
Pollen 6.90 out of 12
Air Quality Not available.
Flu Activity Not available.
METAR KGFL 020253Z AUTO 00000KT 6SM BR SCT044 BKN055 BKN070 21/19 A2992 RMK AO2 SLP131 T02060194 53009 $

More Conditions Fewer Conditions

Pressure 29.92 in
Visibility 6.0 miles
Clouds Scattered Clouds 4400 ft
Mostly Cloudy 5500 ft
Mostly Cloudy 7000 ft
Heat Index 71 °F
Dew Point 70 °F
Humidity 89%
Rainfall 0.00 in
Snow Depth Not available.
UV 0 out of 12
Pollen 6.90 out of 12
Air Quality Not available.
Flu Activity Not available.
METAR KGFL 020253Z AUTO 00000KT 6SM BR SCT044 BKN055 BKN070 21/19 A2992 RMK AO2 SLP131 T02060194 53009 $

More Conditions Fewer Conditions

10-Day Weather Forecast

Almanac

Astronomy

Sep. 01, 2014 Rise Set
Actual Time 6:18 AM EDT 7:29 PM EDT
Civil Twilight 5:49 AM EDT 7:58 PM EDT
Nautical Twilight 5:13 AM EDT 8:34 PM EDT
Astronomical Twilight 4:36 AM EDT 9:11 PM EDT
Moon 1:13 PM EDT (9/1) 11:17 PM EDT (9/1)
Length of Visible Light 14h 09m
Length of Day
13h 11m
Tomorrow will be 2m 51s shorter.
Waxing Crescent, 47% of the Moon is Illuminated
Today
Waxing Crescent
Sep 2
First Quarter
Sep 8
Full
Sep 15
Last Quarter
Sep 24
New

Today's Extremes

State Highs State Lows

Community

WunderPhotos

Upload Photos

1,749,555 photos uploaded!

WunderBlogs® & News

Nearby

Air Quality

  Air Quality AQ Index Pollutant
Monday Moderate
OZONE
Monday Good
PM2.5
Tuesday Good
PM2.5
Tuesday Good
OZONE

Snow Depth

Station Depth Elevation
No new snow has been reported.

Earthquake Activity

City Distance Mag. Time & Date
No recent earthquake activity has been reported nearby.
Minimum magnitude displayed is 2.5.

Coastal Water Temperatures

Place Temperature
No Stations Reporting

Nearby Weather Stations